createdAt,value
2022-09-12T00:00:06.479Z,15.80
2022-09-12T00:02:55.398Z,15.80
2022-09-12T00:05:44.991Z,15.80
2022-09-12T00:08:52.520Z,15.80
2022-09-12T00:11:41.837Z,15.70
2022-09-12T00:14:30.871Z,15.70
2022-09-12T00:17:18.128Z,15.70
2022-09-12T00:20:08.223Z,15.60
2022-09-12T00:22:55.572Z,15.50
2022-09-12T00:25:44.896Z,15.50
2022-09-12T00:28:31.939Z,15.40
2022-09-12T00:31:23.814Z,15.50
2022-09-12T00:34:11.071Z,15.50
2022-09-12T00:36:58.248Z,15.50
2022-09-12T00:39:45.721Z,15.40
2022-09-12T00:42:33.903Z,15.40
2022-09-12T00:45:27.074Z,15.20
2022-09-12T00:48:21.087Z,15.10
2022-09-12T00:51:09.575Z,15.00
2022-09-12T00:53:57.726Z,15.10
2022-09-12T00:56:46.877Z,15.10
2022-09-12T00:59:37.053Z,15.10
2022-09-12T01:02:25.411Z,15.00
2022-09-12T01:05:13.615Z,15.00
2022-09-12T01:08:03.995Z,14.90
2022-09-12T01:10:51.597Z,14.90
2022-09-12T01:13:38.792Z,14.80
2022-09-12T01:16:26.427Z,14.60
2022-09-12T01:19:33.192Z,14.50
2022-09-12T01:22:41.543Z,14.50
2022-09-12T01:25:54.756Z,14.50
2022-09-12T01:29:18.870Z,14.50
2022-09-12T01:32:14.901Z,14.40
2022-09-12T01:35:21.366Z,14.30
2022-09-12T01:38:14.668Z,14.30
2022-09-12T01:41:21.596Z,14.30
2022-09-12T01:44:14.806Z,14.30
2022-09-12T01:47:11.239Z,14.30
2022-09-12T01:50:10.362Z,14.20
2022-09-12T01:53:05.229Z,14.10
2022-09-12T01:56:12.571Z,14.10
2022-09-12T01:59:05.608Z,14.10
2022-09-12T02:01:55.590Z,14.20
2022-09-12T02:05:02.249Z,14.10
2022-09-12T02:07:56.882Z,14.10
2022-09-12T02:10:47.123Z,14.00
2022-09-12T02:13:46.506Z,13.90
2022-09-12T02:16:39.832Z,13.80
2022-09-12T02:19:29.932Z,13.90
2022-09-12T02:22:20.355Z,14.00
2022-09-12T02:25:11.408Z,14.10
2022-09-12T02:28:04.860Z,14.20
2022-09-12T02:31:18.144Z,14.30
2022-09-12T02:34:31.263Z,14.40
2022-09-12T02:37:41.145Z,14.40
2022-09-12T02:40:28.908Z,14.40
2022-09-12T02:43:16.188Z,14.40
2022-09-12T02:46:03.658Z,14.40
2022-09-12T02:48:51.643Z,14.40
2022-09-12T02:51:39.687Z,14.30
2022-09-12T02:54:27.412Z,14.20
2022-09-12T02:57:22.877Z,14.20
2022-09-12T03:00:10.211Z,14.20
2022-09-12T03:03:09.511Z,14.20
2022-09-12T03:06:02.905Z,14.10
2022-09-12T03:09:05.420Z,14.10
2022-09-12T03:11:55.889Z,13.90
2022-09-12T03:14:59.772Z,13.90
2022-09-12T03:17:56.000Z,13.80
2022-09-12T03:20:46.249Z,13.70
2022-09-12T03:23:39.724Z,13.70
2022-09-12T03:26:32.965Z,13.60
2022-09-12T03:29:21.025Z,13.50
2022-09-12T03:32:08.479Z,13.60
2022-09-12T03:34:58.894Z,13.50
2022-09-12T03:37:47.062Z,13.50
2022-09-12T03:40:35.032Z,13.50
2022-09-12T03:43:22.414Z,13.50
2022-09-12T03:46:09.699Z,13.40
2022-09-12T03:48:56.870Z,13.40
2022-09-12T03:51:44.381Z,13.40
2022-09-12T03:54:31.679Z,13.40
2022-09-12T03:57:19.377Z,13.50
2022-09-12T04:00:10.923Z,13.50
2022-09-12T04:02:58.728Z,13.50
2022-09-12T04:05:47.373Z,13.60
2022-09-12T04:08:36.289Z,13.60
2022-09-12T04:11:24.575Z,13.70
2022-09-12T04:14:11.893Z,13.70
2022-09-12T04:16:59.150Z,13.70
2022-09-12T04:19:46.689Z,13.70
2022-09-12T04:22:34.250Z,13.70
2022-09-12T04:25:21.396Z,13.70
2022-09-12T04:28:08.786Z,13.80
2022-09-12T04:30:57.766Z,13.80
2022-09-12T04:33:46.320Z,13.80
2022-09-12T04:36:34.369Z,13.80
2022-09-12T04:39:21.544Z,13.80
2022-09-12T04:42:09.110Z,13.80
2022-09-12T04:44:57.518Z,13.80
2022-09-12T04:47:46.394Z,13.70
2022-09-12T04:50:33.519Z,13.70
2022-09-12T04:53:20.796Z,13.60
2022-09-12T04:56:10.413Z,13.50
2022-09-12T04:59:01.913Z,13.50
2022-09-12T05:01:49.371Z,13.40
2022-09-12T05:04:36.442Z,13.40
2022-09-12T05:07:24.499Z,13.30
2022-09-12T05:10:12.636Z,13.40
2022-09-12T05:12:59.993Z,13.40
2022-09-12T05:15:55.281Z,13.30
2022-09-12T05:18:43.196Z,13.40
2022-09-12T05:21:30.403Z,13.40
2022-09-12T05:24:18.047Z,13.40
2022-09-12T05:27:05.544Z,13.40
2022-09-12T05:29:52.714Z,13.40
2022-09-12T05:32:39.907Z,13.50
2022-09-12T05:35:27.314Z,13.60
2022-09-12T05:38:14.557Z,13.70
2022-09-12T05:41:16.258Z,13.70
2022-09-12T05:44:02.118Z,13.80
2022-09-12T05:46:51.266Z,13.80
2022-09-12T05:49:38.486Z,13.90
2022-09-12T05:52:26.385Z,14.00
2022-09-12T05:55:13.649Z,14.00
2022-09-12T05:58:00.844Z,14.10
2022-09-12T06:00:49.626Z,14.10
2022-09-12T06:03:39.904Z,14.20
2022-09-12T06:06:28.084Z,14.30
2022-09-12T06:09:16.992Z,14.50
2022-09-12T06:12:04.577Z,14.60
2022-09-12T06:14:51.820Z,14.70
2022-09-12T06:17:39.207Z,14.80
2022-09-12T06:20:26.684Z,14.90
2022-09-12T06:23:14.317Z,15.10
2022-09-12T06:26:01.936Z,15.30
2022-09-12T06:28:49.114Z,15.40
2022-09-12T06:31:37.811Z,15.50
2022-09-12T06:34:26.732Z,15.70
2022-09-12T06:37:14.192Z,15.80
2022-09-12T06:40:02.053Z,15.90
2022-09-12T06:42:49.252Z,16.10
2022-09-12T06:45:36.778Z,16.20
2022-09-12T06:48:24.456Z,16.40
2022-09-12T06:51:13.883Z,16.40
2022-09-12T06:54:01.237Z,16.70
2022-09-12T06:56:48.605Z,16.80
2022-09-12T06:59:35.920Z,16.90
2022-09-12T07:02:24.937Z,17.00
2022-09-12T07:05:14.830Z,17.10
2022-09-12T07:08:04.728Z,17.30
2022-09-12T07:10:52.015Z,17.30
2022-09-12T07:13:42.047Z,17.40
2022-09-12T07:16:30.344Z,17.30
2022-09-12T07:19:18.031Z,17.40
2022-09-12T07:22:08.849Z,17.60
2022-09-12T07:24:57.535Z,17.70
2022-09-12T07:27:49.298Z,17.90
2022-09-12T07:30:33.644Z,17.90
2022-09-12T07:33:22.521Z,17.80
2022-09-12T07:36:12.656Z,18.00
2022-09-12T07:38:59.841Z,18.30
2022-09-12T07:41:47.449Z,18.40
2022-09-12T07:44:34.649Z,18.60
2022-09-12T07:47:22.525Z,18.60
2022-09-12T07:50:11.552Z,18.70
2022-09-12T07:52:58.906Z,18.90
2022-09-12T07:55:47.980Z,18.90
2022-09-12T07:58:36.624Z,18.90
2022-09-12T08:01:24.303Z,18.90
2022-09-12T08:04:11.800Z,18.90
2022-09-12T08:06:58.826Z,19.10
2022-09-12T08:09:46.386Z,19.30
2022-09-12T08:12:34.621Z,19.40
2022-09-12T08:15:22.080Z,19.60
2022-09-12T08:18:09.334Z,19.70
2022-09-12T08:21:04.815Z,19.70
2022-09-12T08:24:01.035Z,19.80
2022-09-12T08:26:48.401Z,19.80
2022-09-12T08:29:35.859Z,20.00
2022-09-12T08:32:23.140Z,20.20
2022-09-12T08:35:10.901Z,20.20
2022-09-12T08:37:59.017Z,20.20
2022-09-12T08:40:49.444Z,20.30
2022-09-12T08:44:14.550Z,20.40
2022-09-12T08:47:19.477Z,20.70
2022-09-12T08:50:12.770Z,20.90
2022-09-12T08:53:14.859Z,21.10
2022-09-12T08:56:03.785Z,21.30
2022-09-12T08:58:50.917Z,21.50
2022-09-12T09:01:46.358Z,21.50
2022-09-12T09:04:36.584Z,21.60
2022-09-12T09:08:00.300Z,21.40
2022-09-12T09:10:56.415Z,21.40
2022-09-12T09:14:16.808Z,21.60
2022-09-12T09:17:05.111Z,21.80
2022-09-12T09:20:04.973Z,22.20
2022-09-12T09:23:10.367Z,22.40
2022-09-12T09:26:09.353Z,22.60
2022-09-12T09:29:05.895Z,22.80
2022-09-12T09:31:56.667Z,23.10
2022-09-12T09:34:44.214Z,23.40
2022-09-12T09:37:43.469Z,23.60
2022-09-12T09:40:48.766Z,23.70
2022-09-12T09:43:38.050Z,23.60
2022-09-12T09:46:26.001Z,23.80
2022-09-12T09:49:16.714Z,23.70
2022-09-12T09:52:05.564Z,23.40
2022-09-12T09:55:02.041Z,23.40
2022-09-12T09:57:49.909Z,23.40
2022-09-12T10:00:39.251Z,23.80
2022-09-12T10:03:35.985Z,24.10
2022-09-12T10:06:26.455Z,24.30
2022-09-12T10:09:19.844Z,24.60
2022-09-12T10:12:29.584Z,25.00
2022-09-12T10:15:29.146Z,25.20
2022-09-12T10:18:19.734Z,25.40
2022-09-12T10:21:22.413Z,25.30
2022-09-12T10:24:16.175Z,25.50
2022-09-12T10:27:15.449Z,25.70
2022-09-12T10:30:05.556Z,25.90
2022-09-12T10:32:54.098Z,26.20
2022-09-12T10:35:47.481Z,26.40
2022-09-12T10:38:34.741Z,26.60
2022-09-12T10:41:22.308Z,26.70
2022-09-12T10:44:11.836Z,26.40
2022-09-12T10:47:01.347Z,26.20
2022-09-12T10:49:50.356Z,26.10
2022-09-12T10:52:37.867Z,26.00
2022-09-12T10:55:28.969Z,26.30
2022-09-12T10:58:22.459Z,26.60
2022-09-12T11:01:30.632Z,26.80
2022-09-12T11:04:27.206Z,27.10
2022-09-12T11:07:30.764Z,27.30
2022-09-12T11:10:36.442Z,27.00
2022-09-12T11:13:27.966Z,26.70
2022-09-12T11:16:24.333Z,26.50
2022-09-12T11:19:32.694Z,26.80
2022-09-12T11:22:46.968Z,27.10
2022-09-12T11:25:37.623Z,27.60
2022-09-12T11:29:01.058Z,28.00
2022-09-12T11:31:51.397Z,28.20
2022-09-12T11:34:42.549Z,27.60
2022-09-12T11:37:53.769Z,27.70
2022-09-12T11:40:46.932Z,28.10
2022-09-12T11:43:40.397Z,28.40
2022-09-12T11:46:42.937Z,28.30
2022-09-12T11:49:36.130Z,28.00
2022-09-12T11:52:28.785Z,27.80
2022-09-12T11:55:22.409Z,27.80
2022-09-12T11:58:10.116Z,27.40
2022-09-12T12:01:12.951Z,27.00
2022-09-12T12:04:03.446Z,27.70
2022-09-12T12:06:56.767Z,27.90
2022-09-12T12:09:53.196Z,28.30
2022-09-12T12:12:39.986Z,28.80
2022-09-12T12:15:28.281Z,29.30
2022-09-12T12:18:21.803Z,29.50
2022-09-12T12:21:32.117Z,29.60
2022-09-12T12:24:22.503Z,29.60
2022-09-12T12:27:27.989Z,29.10
2022-09-12T12:30:43.454Z,29.50
2022-09-12T12:33:33.910Z,29.40
2022-09-12T12:36:34.026Z,29.60
2022-09-12T12:39:36.389Z,29.10
2022-09-12T12:42:39.238Z,28.90
2022-09-12T12:45:32.816Z,28.50
2022-09-12T12:48:20.615Z,28.40
2022-09-12T12:51:28.766Z,28.40
2022-09-12T12:54:31.018Z,28.90
2022-09-12T12:57:24.301Z,29.00
2022-09-12T13:00:35.742Z,29.20
2022-09-12T13:03:32.148Z,29.50
2022-09-12T13:06:25.327Z,28.90
2022-09-12T13:09:24.307Z,29.20
2022-09-12T13:12:14.875Z,29.10
2022-09-12T13:15:04.383Z,29.00
2022-09-12T13:17:52.759Z,29.00
2022-09-12T13:20:55.151Z,28.90
2022-09-12T13:23:42.937Z,29.10
2022-09-12T13:26:36.221Z,28.90
2022-09-12T13:29:25.711Z,28.80
2022-09-12T13:32:13.128Z,29.10
2022-09-12T13:35:09.733Z,29.40
2022-09-12T13:38:00.717Z,29.20
2022-09-12T13:40:57.311Z,28.70
2022-09-12T13:43:48.129Z,29.10
2022-09-12T13:46:35.806Z,28.80
2022-09-12T13:49:35.185Z,28.80
2022-09-12T13:52:25.619Z,28.40
2022-09-12T13:55:18.877Z,28.60
2022-09-12T13:58:08.163Z,28.50
2022-09-12T14:01:03.633Z,28.00
2022-09-12T14:04:12.210Z,27.80
2022-09-12T14:07:00.848Z,27.80
2022-09-12T14:09:57.143Z,28.00
2022-09-12T14:12:46.228Z,28.20
2022-09-12T14:15:36.671Z,28.50
2022-09-12T14:18:29.667Z,28.50
2022-09-12T14:21:32.213Z,28.30
2022-09-12T14:24:21.316Z,28.40
2022-09-12T14:27:08.766Z,28.70
2022-09-12T14:30:06.624Z,28.90
2022-09-12T14:33:09.161Z,28.80
2022-09-12T14:36:14.828Z,28.70
2022-09-12T14:39:08.110Z,28.80
2022-09-12T14:42:04.710Z,29.00
2022-09-12T14:45:04.101Z,29.20
2022-09-12T14:47:53.138Z,28.90
2022-09-12T14:50:40.446Z,28.50
2022-09-12T14:53:50.033Z,28.20
2022-09-12T14:56:46.275Z,28.20
2022-09-12T14:59:39.615Z,28.10
2022-09-12T15:02:27.826Z,28.30
2022-09-12T15:05:18.628Z,28.10
2022-09-12T15:08:05.848Z,28.00
2022-09-12T15:10:53.123Z,28.00
2022-09-12T15:13:41.865Z,27.70
2022-09-12T15:16:29.058Z,27.60
2022-09-12T15:19:16.170Z,27.50
2022-09-12T15:22:03.406Z,27.30
2022-09-12T15:24:50.632Z,27.30
2022-09-12T15:27:39.334Z,27.10
2022-09-12T15:30:26.273Z,27.40
2022-09-12T15:33:13.827Z,27.40
2022-09-12T15:36:01.242Z,27.30
2022-09-12T15:38:49.439Z,27.20
2022-09-12T15:41:38.296Z,27.20
2022-09-12T15:44:25.941Z,27.30
2022-09-12T15:47:14.290Z,27.40
2022-09-12T15:50:01.402Z,27.30
2022-09-12T15:52:49.270Z,27.30
2022-09-12T15:55:37.247Z,27.40
2022-09-12T15:58:24.831Z,27.40
2022-09-12T16:01:20.312Z,27.60
2022-09-12T16:04:28.388Z,27.80
2022-09-12T16:07:15.847Z,27.80
2022-09-12T16:10:03.072Z,27.90
2022-09-12T16:12:51.283Z,28.10
2022-09-12T16:15:38.902Z,28.30
2022-09-12T16:18:26.507Z,28.10
2022-09-12T16:21:15.514Z,27.90
2022-09-12T16:24:03.238Z,28.00
2022-09-12T16:26:50.126Z,27.90
2022-09-12T16:29:37.247Z,27.80
2022-09-12T16:32:24.814Z,27.70
2022-09-12T16:35:12.051Z,27.70
2022-09-12T16:38:00.172Z,27.60
2022-09-12T16:40:47.314Z,27.70
2022-09-12T16:43:36.935Z,27.70
2022-09-12T16:46:29.022Z,27.50
2022-09-12T16:49:15.868Z,27.40
2022-09-12T16:52:03.531Z,27.10
2022-09-12T16:54:51.004Z,27.00
2022-09-12T16:57:38.685Z,26.90
2022-09-12T17:00:26.120Z,26.90
2022-09-12T17:03:13.904Z,26.60
2022-09-12T17:06:02.831Z,26.40
2022-09-12T17:08:51.813Z,26.20
2022-09-12T17:11:39.613Z,26.00
2022-09-12T17:14:27.829Z,25.80
2022-09-12T17:17:14.836Z,25.50
2022-09-12T17:20:02.253Z,25.20
2022-09-12T17:22:49.495Z,25.00
2022-09-12T17:25:37.148Z,24.80
2022-09-12T17:28:25.918Z,24.60
2022-09-12T17:31:15.367Z,24.50
2022-09-12T17:34:03.338Z,24.20
2022-09-12T17:36:50.820Z,24.10
2022-09-12T17:39:37.965Z,23.90
2022-09-12T17:42:25.419Z,23.60
2022-09-12T17:45:17.830Z,23.40
2022-09-12T17:48:02.245Z,23.30
2022-09-12T17:50:50.569Z,23.10
2022-09-12T17:53:38.261Z,22.90
2022-09-12T17:56:28.485Z,22.70
2022-09-12T17:59:18.255Z,22.40
2022-09-12T18:02:15.657Z,22.30
2022-09-12T18:05:04.568Z,22.00
2022-09-12T18:07:53.907Z,21.80
2022-09-12T18:10:41.446Z,21.60
2022-09-12T18:13:28.562Z,21.40
2022-09-12T18:16:15.936Z,21.30
2022-09-12T18:19:03.329Z,21.20
2022-09-12T18:21:50.680Z,21.10
2022-09-12T18:24:37.778Z,20.90
2022-09-12T18:27:25.198Z,20.70
2022-09-12T18:30:22.123Z,20.50
2022-09-12T18:33:03.240Z,20.40
2022-09-12T18:35:50.411Z,20.30
2022-09-12T18:38:41.348Z,20.20
2022-09-12T18:41:29.082Z,20.20
2022-09-12T18:44:16.107Z,20.10
2022-09-12T18:47:04.186Z,20.00
2022-09-12T18:49:51.308Z,19.70
2022-09-12T18:52:38.967Z,19.60
2022-09-12T18:55:26.255Z,19.50
2022-09-12T18:58:13.766Z,19.40
2022-09-12T19:01:01.264Z,19.40
2022-09-12T19:03:49.435Z,19.40
2022-09-12T19:06:39.543Z,19.30
2022-09-12T19:09:26.886Z,19.20
2022-09-12T19:12:14.446Z,19.20
2022-09-12T19:15:02.017Z,19.10
2022-09-12T19:17:49.160Z,19.00
2022-09-12T19:20:38.532Z,18.80
2022-09-12T19:23:25.848Z,18.80
2022-09-12T19:26:15.117Z,18.80
2022-09-12T19:29:02.919Z,18.80
2022-09-12T19:31:50.176Z,18.70
2022-09-12T19:34:37.479Z,18.60
2022-09-12T19:37:24.998Z,18.60
2022-09-12T19:40:12.399Z,18.50
2022-09-12T19:42:59.745Z,18.40
2022-09-12T19:45:50.000Z,18.30
2022-09-12T19:48:37.533Z,18.30
2022-09-12T19:51:26.515Z,18.20
2022-09-12T19:54:13.672Z,18.10
2022-09-12T19:57:00.827Z,18.10
2022-09-12T19:59:48.342Z,18.10
2022-09-12T20:02:35.683Z,18.10
2022-09-12T20:05:22.948Z,18.00
2022-09-12T20:08:10.323Z,18.00
2022-09-12T20:10:57.688Z,17.90
2022-09-12T20:13:46.456Z,17.90
2022-09-12T20:16:34.305Z,17.80
2022-09-12T20:19:22.262Z,17.70
2022-09-12T20:22:09.541Z,17.80
2022-09-12T20:24:56.823Z,17.90
2022-09-12T20:27:44.189Z,18.00
2022-09-12T20:30:31.471Z,17.90
2022-09-12T20:33:18.640Z,18.00
2022-09-12T20:36:11.720Z,18.00
2022-09-12T20:39:02.338Z,17.90
2022-09-12T20:41:49.540Z,17.70
2022-09-12T20:44:36.954Z,17.70
2022-09-12T20:47:24.238Z,17.60
2022-09-12T20:50:11.787Z,17.50
2022-09-12T20:53:00.860Z,17.40
2022-09-12T20:55:52.456Z,17.40
2022-09-12T20:58:43.752Z,17.40
2022-09-12T21:01:29.933Z,17.30
2022-09-12T21:04:18.301Z,17.20
2022-09-12T21:07:05.853Z,17.20
2022-09-12T21:09:54.300Z,17.20
2022-09-12T21:12:41.816Z,17.10
2022-09-12T21:15:29.319Z,17.00
2022-09-12T21:18:16.879Z,17.10
2022-09-12T21:21:05.875Z,17.10
2022-09-12T21:23:54.977Z,17.10
2022-09-12T21:26:42.187Z,17.10
2022-09-12T21:29:29.345Z,17.10
2022-09-12T21:32:16.663Z,17.20
2022-09-12T21:35:05.225Z,17.10
2022-09-12T21:37:53.241Z,16.90
2022-09-12T21:40:40.825Z,16.90
2022-09-12T21:43:28.478Z,16.80
2022-09-12T21:46:15.698Z,16.80
2022-09-12T21:49:03.265Z,16.80
2022-09-12T21:51:51.791Z,16.80
2022-09-12T21:54:39.416Z,16.80
2022-09-12T21:57:26.803Z,16.80
2022-09-12T22:00:16.436Z,16.80
2022-09-12T22:03:04.715Z,16.70
2022-09-12T22:05:54.672Z,16.80
2022-09-12T22:08:42.311Z,16.80
2022-09-12T22:11:29.537Z,16.80
2022-09-12T22:14:17.487Z,16.80
2022-09-12T22:17:05.418Z,16.80
2022-09-12T22:19:52.392Z,16.60
2022-09-12T22:22:58.134Z,16.50
2022-09-12T22:25:45.444Z,16.50
2022-09-12T22:28:33.357Z,16.60
2022-09-12T22:31:20.927Z,16.60
2022-09-12T22:34:08.286Z,16.70
2022-09-12T22:36:55.752Z,16.70
2022-09-12T22:39:43.124Z,16.70
2022-09-12T22:42:31.317Z,16.60
2022-09-12T22:45:19.217Z,16.60
2022-09-12T22:48:09.188Z,16.60
2022-09-12T22:50:55.270Z,16.70
2022-09-12T22:53:43.377Z,16.70
2022-09-12T22:56:30.936Z,16.80
2022-09-12T22:59:18.499Z,16.80
2022-09-12T23:02:06.653Z,16.70
2022-09-12T23:04:54.153Z,16.80
2022-09-12T23:07:41.833Z,16.90
2022-09-12T23:10:29.563Z,17.00
2022-09-12T23:13:16.990Z,16.90
2022-09-12T23:16:07.032Z,16.80
2022-09-12T23:18:54.489Z,16.70
2022-09-12T23:21:42.075Z,16.80
2022-09-12T23:24:29.339Z,16.80
2022-09-12T23:27:16.539Z,16.80
2022-09-12T23:30:03.844Z,16.80
2022-09-12T23:32:51.633Z,16.80
2022-09-12T23:35:39.137Z,16.70
2022-09-12T23:38:26.551Z,16.60
2022-09-12T23:41:15.356Z,16.50
2022-09-12T23:44:03.155Z,16.40
2022-09-12T23:46:50.325Z,16.30
2022-09-12T23:49:37.595Z,16.30
2022-09-12T23:52:24.746Z,16.30
2022-09-12T23:55:12.116Z,16.40
2022-09-12T23:57:59.573Z,16.50
